Time;durP1;ratioP1;P1;durP2;ratioP2;P2;SDS_P1;SDS_P2;PMS_P1;PMS_P2;Temp;Humidity;BMP_temperature;BMP_pressure;BME280_temperature;BME280_humidity;BME280_pressure;Samples;Min_cycle;Max_cycle;Signal;HPM_P1;HPM_P2
2021/11/07 00:01:42;;;;;;;;;17.50;15.00;;;;;;;;5020508;28;11018;-81
2021/11/07 00:04:22;;;;;;;;;18.75;18.75;;;;;;;;5062324;28;11130;-81
2021/11/07 00:06:54;;;;;;;;;24.75;22.00;;;;;;;;5062266;28;11234;-81
2021/11/07 00:09:26;;;;;;;;;18.25;17.25;;;;;;;;5063802;28;11761;-80
2021/11/07 00:11:59;;;;;;;;;21.00;17.25;;;;;;;;5063241;28;11148;-80
2021/11/07 00:14:27;;;;;;;;;19.25;16.50;;;;;;;;5063319;28;11236;-80
2021/11/07 00:16:56;;;;;;;;;21.00;21.00;;;;;;;;5062430;28;12019;-81
2021/11/07 00:19:30;;;;;;;;;20.00;17.75;;;;;;;;5063574;28;12008;-80
2021/11/07 00:22:05;;;;;;;;;22.25;22.25;;;;;;;;5058293;28;11210;-80
2021/11/07 00:24:38;;;;;;;;;16.50;16.50;;;;;;;;5054894;28;11122;-80
2021/11/07 00:27:18;;;;;;;;;20.50;16.00;;;;;;;;5063658;28;11802;-81
2021/11/07 00:29:50;;;;;;;;;17.00;17.00;;;;;;;;5062162;28;11104;-80
2021/11/07 00:32:23;;;;;;;;;22.25;19.00;;;;;;;;5062669;28;10994;-81
2021/11/07 00:35:34;;;;;;;;;16.75;16.00;;;;;;;;5062548;28;11112;-80
2021/11/07 00:38:03;;;;;;;;;14.75;13.75;;;;;;;;5059385;28;11255;-80
2021/11/07 00:40:38;;;;;;;;;16.25;16.25;;;;;;;;5062441;28;11294;-80
2021/11/07 00:43:10;;;;;;;;;20.25;16.25;;;;;;;;5058232;28;11108;-80
2021/11/07 00:45:42;;;;;;;;;15.00;15.00;;;;;;;;5068843;28;11242;-80
2021/11/07 00:51:00;;;;;;;;;19.00;17.50;;;;;;;;5052485;28;11265;-79
2021/11/07 00:56:17;;;;;;;;;14.75;12.00;;;;;;;;5059056;28;11025;-80
2021/11/07 00:58:57;;;;;;;;;15.50;13.25;;;;;;;;5061952;28;11170;-81
2021/11/07 01:01:25;;;;;;;;;17.00;16.25;;;;;;;;5062431;28;10966;-80
2021/11/07 01:03:52;;;;;;;;;7.50;7.50;;;;;;;;5062016;28;11219;-82
2021/11/07 01:06:20;;;;;;;;;16.00;14.75;;;;;;;;5059812;28;11120;-81
2021/11/07 01:08:49;;;;;;;;;15.50;13.00;;;;;;;;5062447;28;11152;-82
2021/11/07 01:11:17;;;;;;;;;16.00;15.00;;;;;;;;5064192;28;11128;-81
2021/11/07 01:13:46;;;;;;;;;15.50;15.50;;;;;;;;5064864;28;11232;-82
2021/11/07 01:16:15;;;;;;;;;11.50;11.50;;;;;;;;5066270;28;10965;-82
2021/11/07 01:18:43;;;;;;;;;13.25;13.25;;;;;;;;5067075;28;10917;-82
2021/11/07 01:21:14;;;;;;;;;11.25;11.25;;;;;;;;5065677;28;11022;-81
2021/11/07 01:23:43;;;;;;;;;11.00;11.00;;;;;;;;5069192;28;11104;-81
2021/11/07 01:26:15;;;;;;;;;13.25;11.25;;;;;;;;5064238;28;10845;-82
2021/11/07 01:28:48;;;;;;;;;12.75;12.00;;;;;;;;5066789;28;10863;-81
2021/11/07 01:31:16;;;;;;;;;11.50;11.00;;;;;;;;5065484;28;10816;-81
2021/11/07 01:33:45;;;;;;;;;6.25;6.25;;;;;;;;5065274;28;10910;-83
2021/11/07 01:36:25;;;;;;;;;11.00;11.00;;;;;;;;5066748;28;10831;-81
2021/11/07 01:39:00;;;;;;;;;10.75;10.25;;;;;;;;5060210;28;10946;-82
2021/11/07 01:41:31;;;;;;;;;13.25;11.25;;;;;;;;5064731;28;12060;-81
2021/11/07 01:43:59;;;;;;;;;14.25;12.25;;;;;;;;5065168;28;10786;-80
2021/11/07 01:46:30;;;;;;;;;11.00;11.00;;;;;;;;5065926;28;10940;-81
2021/11/07 01:49:04;;;;;;;;;16.00;16.00;;;;;;;;5067506;28;10951;-81
2021/11/07 01:51:32;;;;;;;;;13.00;12.25;;;;;;;;5063780;28;10981;-81
2021/11/07 01:54:08;;;;;;;;;11.00;10.50;;;;;;;;5047601;28;11089;-81
2021/11/07 01:56:35;;;;;;;;;12.75;12.75;;;;;;;;5064413;28;12706;-81
2021/11/07 01:59:03;;;;;;;;;16.00;14.00;;;;;;;;5065760;28;11074;-81
2021/11/07 02:01:32;;;;;;;;;15.00;15.00;;;;;;;;5064865;28;11114;-82
2021/11/07 02:03:59;;;;;;;;;13.75;13.75;;;;;;;;5048062;28;11050;-81
2021/11/07 02:06:27;;;;;;;;;15.00;15.00;;;;;;;;5065806;28;10986;-82
2021/11/07 02:08:54;;;;;;;;;16.75;16.75;;;;;;;;5063794;28;11118;-82
2021/11/07 02:11:22;;;;;;;;;18.00;15.00;;;;;;;;5065494;28;11161;-82
2021/11/07 02:13:50;;;;;;;;;15.50;13.25;;;;;;;;5061060;28;11121;-82
2021/11/07 02:16:17;;;;;;;;;10.00;10.00;;;;;;;;5066552;28;11125;-80
2021/11/07 02:18:47;;;;;;;;;12.00;12.00;;;;;;;;5047381;28;11107;-80
2021/11/07 02:21:15;;;;;;;;;15.00;15.00;;;;;;;;5063578;28;11179;-81
2021/11/07 02:23:43;;;;;;;;;20.00;14.75;;;;;;;;5067641;28;11283;-80
2021/11/07 02:26:10;;;;;;;;;16.75;16.50;;;;;;;;5044960;28;11447;-81
2021/11/07 02:28:40;;;;;;;;;15.00;13.50;;;;;;;;5066157;28;11267;-82
2021/11/07 02:31:09;;;;;;;;;15.25;14.50;;;;;;;;5063631;28;11147;-81
2021/11/07 02:33:37;;;;;;;;;15.50;14.50;;;;;;;;5065112;28;11299;-81
2021/11/07 02:36:07;;;;;;;;;19.50;15.75;;;;;;;;5064413;28;11014;-81
2021/11/07 02:38:36;;;;;;;;;16.00;16.00;;;;;;;;5064423;28;11265;-80
2021/11/07 02:41:03;;;;;;;;;14.75;14.75;;;;;;;;5065273;28;11165;-82
2021/11/07 02:43:31;;;;;;;;;19.00;19.00;;;;;;;;5065191;28;11778;-81
2021/11/07 02:45:58;;;;;;;;;16.50;16.50;;;;;;;;5065266;28;11207;-80
2021/11/07 02:48:26;;;;;;;;;11.75;8.50;;;;;;;;5064080;28;11118;-81
2021/11/07 02:50:53;;;;;;;;;16.25;16.25;;;;;;;;5064969;28;11462;-80
2021/11/07 02:53:21;;;;;;;;;18.50;18.50;;;;;;;;5063967;28;11700;-81
2021/11/07 02:55:49;;;;;;;;;16.75;16.75;;;;;;;;5064887;28;11387;-82
2021/11/07 02:58:17;;;;;;;;;15.00;15.00;;;;;;;;5046695;28;11406;-82
2021/11/07 03:00:44;;;;;;;;;20.00;17.00;;;;;;;;5062683;28;11183;-82
2021/11/07 03:03:12;;;;;;;;;16.50;16.50;;;;;;;;5065238;28;11324;-80
2021/11/07 03:05:39;;;;;;;;;19.75;17.00;;;;;;;;5063851;28;11176;-81
2021/11/07 03:08:07;;;;;;;;;16.50;13.25;;;;;;;;5063031;28;11128;-80
2021/11/07 03:10:34;;;;;;;;;13.50;13.50;;;;;;;;5063991;28;11164;-81
2021/11/07 03:13:09;;;;;;;;;16.00;16.00;;;;;;;;5063328;28;11415;-81
2021/11/07 03:15:39;;;;;;;;;17.50;15.50;;;;;;;;5063383;28;11287;-81
2021/11/07 03:18:07;;;;;;;;;17.75;17.00;;;;;;;;5062198;28;11029;-81
2021/11/07 03:20:35;;;;;;;;;16.00;16.00;;;;;;;;5064754;28;11195;-81
2021/11/07 03:23:03;;;;;;;;;15.75;15.00;;;;;;;;5063103;28;11005;-81
2021/11/07 03:25:31;;;;;;;;;19.50;14.00;;;;;;;;5050570;28;11033;-79
2021/11/07 03:27:59;;;;;;;;;19.00;15.50;;;;;;;;5062182;28;11282;-80
2021/11/07 03:30:40;;;;;;;;;13.75;12.00;;;;;;;;5051886;28;10939;-81
2021/11/07 03:33:18;;;;;;;;;21.50;18.50;;;;;;;;5061595;28;11114;-81
2021/11/07 03:35:46;;;;;;;;;17.00;16.00;;;;;;;;5062023;28;11273;-81
2021/11/07 03:38:14;;;;;;;;;16.00;12.75;;;;;;;;5059880;28;11199;-80
2021/11/07 03:40:42;;;;;;;;;14.25;14.25;;;;;;;;5059296;28;11122;-81
2021/11/07 03:43:09;;;;;;;;;20.00;19.75;;;;;;;;5064499;28;11047;-81
2021/11/07 03:45:39;;;;;;;;;22.00;18.75;;;;;;;;5064088;28;11111;-80
2021/11/07 03:48:07;;;;;;;;;19.00;19.00;;;;;;;;5057251;28;11297;-81
2021/11/07 03:50:35;;;;;;;;;21.25;19.25;;;;;;;;5062640;28;11192;-80
2021/11/07 03:53:02;;;;;;;;;12.00;12.00;;;;;;;;5061775;28;11014;-81
2021/11/07 03:55:30;;;;;;;;;16.75;14.50;;;;;;;;5063587;28;11026;-80
2021/11/07 03:57:58;;;;;;;;;16.00;16.00;;;;;;;;5044021;28;10886;-80
2021/11/07 04:00:25;;;;;;;;;21.00;16.00;;;;;;;;5063756;28;11092;-81
2021/11/07 04:02:54;;;;;;;;;20.50;16.00;;;;;;;;5063094;28;11108;-82
2021/11/07 04:05:23;;;;;;;;;22.00;20.25;;;;;;;;5063459;28;11040;-79
2021/11/07 04:07:51;;;;;;;;;19.25;17.75;;;;;;;;5063636;28;11284;-81
2021/11/07 04:10:19;;;;;;;;;23.50;22.25;;;;;;;;5062834;28;11162;-82
2021/11/07 04:12:46;;;;;;;;;24.75;20.25;;;;;;;;5063097;28;11032;-81
2021/11/07 04:15:14;;;;;;;;;18.25;18.25;;;;;;;;5061978;28;11019;-82
2021/11/07 04:17:41;;;;;;;;;19.25;13.75;;;;;;;;5063840;28;12575;-81
2021/11/07 04:20:13;;;;;;;;;20.00;17.75;;;;;;;;5058000;28;12049;-82
2021/11/07 04:22:40;;;;;;;;;21.00;19.00;;;;;;;;5063113;28;11194;-80
2021/11/07 04:25:09;;;;;;;;;19.50;18.25;;;;;;;;5057728;28;11109;-81
2021/11/07 04:27:37;;;;;;;;;23.50;18.25;;;;;;;;5062301;28;11200;-81
2021/11/07 04:30:05;;;;;;;;;22.75;20.50;;;;;;;;5062821;28;11113;-81
2021/11/07 04:32:33;;;;;;;;;20.50;16.75;;;;;;;;5061158;28;11038;-81
2021/11/07 04:35:00;;;;;;;;;15.75;15.75;;;;;;;;5060184;28;11021;-81
2021/11/07 04:37:29;;;;;;;;;18.50;17.50;;;;;;;;5052616;28;10884;-81
2021/11/07 04:39:57;;;;;;;;;18.50;17.00;;;;;;;;5062899;28;11506;-81
2021/11/07 04:42:25;;;;;;;;;20.50;17.75;;;;;;;;5063294;28;11138;-81
2021/11/07 04:44:52;;;;;;;;;22.25;17.00;;;;;;;;5070920;28;10950;-81
2021/11/07 04:47:20;;;;;;;;;21.75;21.75;;;;;;;;5065692;28;10873;-81
2021/11/07 04:49:51;;;;;;;;;15.25;12.75;;;;;;;;5066148;28;11159;-80
2021/11/07 04:52:18;;;;;;;;;25.50;22.25;;;;;;;;5046452;28;10838;-80
2021/11/07 04:54:47;;;;;;;;;19.00;17.00;;;;;;;;5064661;28;11085;-81
2021/11/07 04:57:14;;;;;;;;;17.75;17.75;;;;;;;;5066553;28;11641;-80
2021/11/07 04:59:41;;;;;;;;;19.50;18.00;;;;;;;;5067809;28;10941;-81
2021/11/07 05:02:09;;;;;;;;;17.75;17.75;;;;;;;;5065313;28;11704;-80
2021/11/07 05:04:37;;;;;;;;;19.00;17.00;;;;;;;;5066416;28;10876;-80
2021/11/07 05:07:04;;;;;;;;;18.00;17.00;;;;;;;;5064062;28;10942;-80
2021/11/07 05:09:32;;;;;;;;;18.25;16.75;;;;;;;;5066822;28;11619;-80
2021/11/07 05:12:01;;;;;;;;;19.00;18.50;;;;;;;;5065907;28;10924;-80
2021/11/07 05:14:28;;;;;;;;;15.00;15.00;;;;;;;;5067350;28;10952;-79
2021/11/07 05:16:55;;;;;;;;;21.50;18.25;;;;;;;;5071319;28;10867;-79
2021/11/07 05:19:23;;;;;;;;;20.00;19.25;;;;;;;;5066147;28;11615;-81
2021/11/07 05:21:52;;;;;;;;;16.75;16.75;;;;;;;;5059731;28;11317;-80
2021/11/07 05:24:19;;;;;;;;;17.50;17.50;;;;;;;;5047558;28;10760;-81
2021/11/07 05:26:47;;;;;;;;;18.25;17.75;;;;;;;;5066876;28;10899;-81
2021/11/07 05:29:16;;;;;;;;;16.25;16.25;;;;;;;;5065809;28;10802;-80
2021/11/07 05:31:43;;;;;;;;;13.00;13.00;;;;;;;;5048391;28;10613;-81
2021/11/07 05:34:10;;;;;;;;;15.50;15.50;;;;;;;;5065365;28;10655;-80
2021/11/07 05:36:41;;;;;;;;;20.75;20.00;;;;;;;;5066048;28;10786;-81
2021/11/07 05:39:08;;;;;;;;;18.25;18.00;;;;;;;;5066463;28;10711;-81
2021/11/07 05:41:35;;;;;;;;;16.00;16.00;;;;;;;;5064734;28;10926;-80
2021/11/07 05:44:03;;;;;;;;;14.00;11.25;;;;;;;;5072776;28;10649;-80
2021/11/07 05:46:31;;;;;;;;;14.75;13.75;;;;;;;;5070578;28;10613;-82
2021/11/07 05:48:59;;;;;;;;;21.75;21.75;;;;;;;;5066875;28;10670;-81
2021/11/07 05:51:27;;;;;;;;;22.25;18.00;;;;;;;;5063498;28;10760;-80
2021/11/07 05:53:54;;;;;;;;;20.00;18.00;;;;;;;;5066121;28;11429;-82
2021/11/07 05:56:22;;;;;;;;;18.00;13.50;;;;;;;;5062882;28;10699;-84
2021/11/07 05:58:49;;;;;;;;;25.50;16.75;;;;;;;;5064514;28;10589;-84
2021/11/07 06:01:17;;;;;;;;;19.00;16.75;;;;;;;;5066049;28;10672;-87
2021/11/07 06:03:46;;;;;;;;;19.25;17.75;;;;;;;;5065788;28;10639;-86
2021/11/07 06:06:13;;;;;;;;;18.25;17.00;;;;;;;;5067352;28;10636;-85
2021/11/07 06:08:41;;;;;;;;;20.25;19.25;;;;;;;;5066774;28;10585;-83
2021/11/07 06:11:08;;;;;;;;;19.75;16.00;;;;;;;;5073779;28;10632;-83
2021/11/07 06:13:36;;;;;;;;;14.25;14.25;;;;;;;;5066919;28;10584;-84
2021/11/07 06:16:04;;;;;;;;;16.75;14.50;;;;;;;;5065700;28;10562;-84
2021/11/07 06:18:31;;;;;;;;;18.25;18.25;;;;;;;;5066612;28;10589;-85
2021/11/07 06:21:00;;;;;;;;;14.25;14.25;;;;;;;;5063735;28;11497;-82
2021/11/07 06:23:28;;;;;;;;;16.75;16.75;;;;;;;;5049887;28;10578;-76
2021/11/07 06:25:55;;;;;;;;;19.25;19.25;;;;;;;;5063859;28;10564;-82
2021/11/07 06:28:22;;;;;;;;;16.50;16.00;;;;;;;;5064919;28;10802;-78
2021/11/07 06:30:50;;;;;;;;;11.75;11.75;;;;;;;;5064643;28;10674;-78
2021/11/07 06:33:18;;;;;;;;;19.75;17.50;;;;;;;;5064340;28;10640;-84
2021/11/07 06:35:45;;;;;;;;;12.75;12.75;;;;;;;;5065623;28;10615;-83
2021/11/07 06:38:14;;;;;;;;;16.75;16.75;;;;;;;;5059476;28;10595;-80
2021/11/07 06:40:42;;;;;;;;;20.50;14.00;;;;;;;;5047168;28;10568;-78
2021/11/07 06:43:09;;;;;;;;;11.25;11.25;;;;;;;;5041974;28;10550;-72
2021/11/07 06:45:38;;;;;;;;;16.00;14.00;;;;;;;;5065706;28;10822;-73
2021/11/07 06:48:06;;;;;;;;;20.50;15.00;;;;;;;;5065332;28;10710;-74
2021/11/07 06:50:33;;;;;;;;;17.00;17.00;;;;;;;;5065208;28;10667;-72
2021/11/07 06:53:01;;;;;;;;;15.50;15.50;;;;;;;;5063964;28;10748;-72
2021/11/07 06:55:30;;;;;;;;;19.50;15.75;;;;;;;;5063509;28;10765;-72
2021/11/07 06:57:57;;;;;;;;;18.00;15.00;;;;;;;;5062897;28;10595;-72
2021/11/07 07:00:28;;;;;;;;;16.50;14.00;;;;;;;;5062959;28;10539;-72
2021/11/07 07:02:56;;;;;;;;;15.25;13.50;;;;;;;;5064100;28;10558;-73
2021/11/07 07:05:23;;;;;;;;;16.50;15.00;;;;;;;;5057751;28;10707;-72
2021/11/07 07:07:54;;;;;;;;;11.00;10.75;;;;;;;;5046090;28;10547;-72
2021/11/07 07:10:24;;;;;;;;;11.00;11.00;;;;;;;;5064001;28;10596;-72
2021/11/07 07:13:00;;;;;;;;;11.00;11.00;;;;;;;;5045842;28;10443;-71
2021/11/07 07:15:29;;;;;;;;;14.00;13.25;;;;;;;;5063989;28;10547;-72
2021/11/07 07:18:08;;;;;;;;;14.75;12.25;;;;;;;;5063507;28;10584;-70
2021/11/07 07:20:52;;;;;;;;;13.25;12.00;;;;;;;;5061058;28;10465;-71
2021/11/07 07:29:07;;;;;;;;;15.25;12.00;;;;;;;;5054538;28;10579;-72
2021/11/07 07:31:47;;;;;;;;;16.50;14.25;;;;;;;;5052446;28;10563;-74
2021/11/07 07:34:19;;;;;;;;;16.75;14.25;;;;;;;;5063274;28;10648;-72
2021/11/07 07:36:46;;;;;;;;;16.25;16.25;;;;;;;;5064068;28;10482;-72
2021/11/07 07:39:13;;;;;;;;;17.00;14.50;;;;;;;;5061473;28;10398;-72
2021/11/07 07:41:42;;;;;;;;;18.75;16.00;;;;;;;;5063995;28;10670;-72
2021/11/07 07:44:11;;;;;;;;;12.50;11.25;;;;;;;;5063461;28;10560;-73
2021/11/07 07:46:41;;;;;;;;;13.50;13.50;;;;;;;;5063903;28;10577;-73
2021/11/07 07:49:08;;;;;;;;;13.25;13.25;;;;;;;;5063853;28;10353;-73
2021/11/07 07:51:36;;;;;;;;;15.00;14.75;;;;;;;;5063541;28;10255;-74
2021/11/07 07:54:05;;;;;;;;;15.50;14.50;;;;;;;;5063045;28;10578;-74
2021/11/07 07:56:33;;;;;;;;;20.00;17.00;;;;;;;;5061513;28;10543;-73
2021/11/07 07:59:01;;;;;;;;;12.25;12.25;;;;;;;;5062919;28;10430;-73
2021/11/07 08:01:30;;;;;;;;;12.50;12.50;;;;;;;;5061751;28;10373;-74
2021/11/07 08:03:58;;;;;;;;;13.75;13.75;;;;;;;;5062300;28;10336;-74
2021/11/07 08:06:25;;;;;;;;;13.75;13.75;;;;;;;;5067891;28;10264;-72
2021/11/07 08:08:52;;;;;;;;;16.00;12.75;;;;;;;;5069471;28;10280;-72
2021/11/07 08:11:19;;;;;;;;;14.00;14.00;;;;;;;;5073636;28;10229;-72
2021/11/07 08:13:50;;;;;;;;;6.50;6.50;;;;;;;;5075349;28;10356;-74
2021/11/07 08:16:18;;;;;;;;;12.00;12.00;;;;;;;;5068988;28;10477;-74
2021/11/07 08:18:47;;;;;;;;;14.25;12.75;;;;;;;;5073444;28;10186;-72
2021/11/07 08:21:17;;;;;;;;;12.25;10.75;;;;;;;;5064875;28;10347;-72
2021/11/07 08:23:46;;;;;;;;;14.00;13.50;;;;;;;;5064650;28;10254;-72
2021/11/07 08:26:15;;;;;;;;;7.00;7.00;;;;;;;;5041082;28;10314;-73
2021/11/07 08:28:43;;;;;;;;;12.75;11.00;;;;;;;;5059556;28;10292;-72
2021/11/07 08:31:18;;;;;;;;;12.25;12.25;;;;;;;;5058610;28;10214;-72
2021/11/07 08:33:49;;;;;;;;;11.50;11.50;;;;;;;;5060815;28;10092;-72
2021/11/07 08:36:20;;;;;;;;;12.50;10.50;;;;;;;;5058971;28;10195;-71
2021/11/07 08:38:50;;;;;;;;;12.00;12.00;;;;;;;;5057483;28;10070;-72
2021/11/07 08:41:19;;;;;;;;;11.50;11.50;;;;;;;;5059915;28;10222;-71
2021/11/07 09:00:25;;;;;;;;;14.00;12.00;;;;;;;;5064893;28;10226;-75
2021/11/07 09:05:51;;;;;;;;;15.50;13.25;;;;;;;;5073818;28;11640;-76
2021/11/07 09:08:21;;;;;;;;;11.75;9.50;;;;;;;;5066159;28;10908;-73
2021/11/07 09:10:49;;;;;;;;;14.00;10.75;;;;;;;;5063239;28;10123;-73
2021/11/07 09:13:17;;;;;;;;;10.75;10.75;;;;;;;;5075447;28;10984;-73
2021/11/07 09:15:47;;;;;;;;;8.75;8.75;;;;;;;;5075447;28;10006;-77
2021/11/07 09:18:14;;;;;;;;;12.00;8.00;;;;;;;;5064115;28;9946;-73
2021/11/07 09:20:48;;;;;;;;;12.00;12.00;;;;;;;;5068056;28;9939;-76
2021/11/07 09:23:19;;;;;;;;;9.25;9.25;;;;;;;;5064004;28;10108;-75
2021/11/07 09:25:50;;;;;;;;;12.50;12.50;;;;;;;;5068788;28;9945;-74
2021/11/07 09:28:22;;;;;;;;;12.75;12.75;;;;;;;;5064205;28;9961;-74
2021/11/07 09:30:58;;;;;;;;;8.25;8.25;;;;;;;;5075280;28;9908;-73
2021/11/07 09:33:30;;;;;;;;;9.50;9.50;;;;;;;;5070965;28;9878;-72
2021/11/07 09:38:53;;;;;;;;;5.00;4.00;;;;;;;;5045793;28;9848;-74
2021/11/07 09:41:30;;;;;;;;;9.25;7.00;;;;;;;;5067882;28;9636;-72
2021/11/07 09:44:01;;;;;;;;;12.00;9.75;;;;;;;;5077469;28;9850;-73
2021/11/07 09:46:44;;;;;;;;;14.75;10.00;;;;;;;;5065070;28;9773;-73
2021/11/07 09:49:17;;;;;;;;;7.00;7.00;;;;;;;;5068928;28;9466;-74
2021/11/07 09:51:53;;;;;;;;;10.00;7.00;;;;;;;;5072725;28;9331;-75
2021/11/07 09:54:21;;;;;;;;;5.33;5.33;;;;;;;;5068233;28;10912;-75
2021/11/07 09:56:50;;;;;;;;;7.00;7.00;;;;;;;;5054960;28;9272;-74
2021/11/07 09:59:19;;;;;;;;;7.67;7.67;;;;;;;;5075757;28;9205;-75
2021/11/07 10:01:50;;;;;;;;;7.33;7.33;;;;;;;;5067281;28;9276;-75
2021/11/07 10:04:18;;;;;;;;;10.33;8.33;;;;;;;;5075980;28;9343;-75
2021/11/07 10:06:49;;;;;;;;;8.67;7.00;;;;;;;;5074623;28;9256;-74
2021/11/07 10:09:31;;;;;;;;;6.33;6.33;;;;;;;;5076833;28;9101;-75
2021/11/07 10:12:05;;;;;;;;;7.00;7.00;;;;;;;;5073113;28;9389;-75
2021/11/07 10:14:45;;;;;;;;;7.67;7.67;;;;;;;;5079797;28;9188;-74
2021/11/07 10:17:25;;;;;;;;;4.00;4.00;;;;;;;;5067236;28;9085;-75
2021/11/07 10:20:10;;;;;;;;;6.00;4.33;;;;;;;;5068533;28;9105;-75
2021/11/07 10:22:40;;;;;;;;;6.50;4.25;;;;;;;;5078472;28;9010;-75
2021/11/07 10:25:15;;;;;;;;;4.00;4.00;;;;;;;;5074317;28;8926;-75
2021/11/07 10:27:47;;;;;;;;;4.50;3.50;;;;;;;;5052527;28;8889;-76
2021/11/07 10:30:19;;;;;;;;;8.50;4.25;;;;;;;;5074172;28;9635;-76
2021/11/07 10:33:01;;;;;;;;;5.00;3.25;;;;;;;;5074919;28;8867;-75
2021/11/07 10:52:52;;;;;;;;;5.00;4.25;;;;;;;;5070688;28;8866;-75
2021/11/07 10:55:23;;;;;;;;;6.00;4.25;;;;;;;;5067784;28;9687;-74
2021/11/07 10:57:53;;;;;;;;;6.75;5.00;;;;;;;;5062639;28;8902;-76
2021/11/07 11:00:27;;;;;;;;;5.25;2.25;;;;;;;;5060895;28;8876;-77
2021/11/07 11:02:56;;;;;;;;;4.00;4.00;;;;;;;;5065908;28;8838;-77
2021/11/07 11:05:26;;;;;;;;;3.25;3.00;;;;;;;;5070831;28;8856;-73
2021/11/07 11:08:00;;;;;;;;;2.75;2.50;;;;;;;;5059575;28;8863;-77
2021/11/07 11:10:37;;;;;;;;;2.25;1.75;;;;;;;;5069242;28;8842;-77
2021/11/07 11:16:20;;;;;;;;;2.00;2.00;;;;;;;;5052613;28;9787;-77
2021/11/07 11:22:12;;;;;;;;;3.00;3.00;;;;;;;;5060650;28;9673;-76
2021/11/07 11:27:34;;;;;;;;;2.25;1.75;;;;;;;;5049682;28;8984;-74
2021/11/07 11:32:47;;;;;;;;;6.50;5.75;;;;;;;;5034550;28;8800;-75
2021/11/07 11:35:19;;;;;;;;;2.50;2.50;;;;;;;;5039189;28;9034;-74
2021/11/07 11:37:56;;;;;;;;;1.25;1.25;;;;;;;;5021540;28;8876;-75
2021/11/07 11:40:26;;;;;;;;;2.75;2.75;;;;;;;;5039132;28;8974;-76
2021/11/07 11:42:58;;;;;;;;;1.00;1.00;;;;;;;;5040229;28;8860;-75
2021/11/07 11:45:30;;;;;;;;;1.75;1.75;;;;;;;;5041506;28;8891;-73
2021/11/07 11:48:15;;;;;;;;;1.50;1.25;;;;;;;;5039119;28;10051;-75
2021/11/07 11:56:26;;;;;;;;;1.25;1.25;;;;;;;;5031427;28;8907;-75
2021/11/07 11:58:59;;;;;;;;;3.00;1.75;;;;;;;;5021048;28;8869;-75
2021/11/07 12:01:30;;;;;;;;;7.25;5.00;;;;;;;;5054477;28;8926;-74
2021/11/07 12:04:10;;;;;;;;;4.00;2.00;;;;;;;;5066714;28;8900;-73
2021/11/07 12:06:46;;;;;;;;;3.25;3.00;;;;;;;;5065830;28;8853;-74
2021/11/07 12:09:24;;;;;;;;;1.75;1.00;;;;;;;;5061281;28;8968;-78
2021/11/07 12:11:55;;;;;;;;;1.00;1.00;;;;;;;;5062443;28;8883;-75
2021/11/07 12:14:33;;;;;;;;;0.75;0.75;;;;;;;;5062813;28;8834;-81
2021/11/07 12:17:05;;;;;;;;;0.00;0.00;;;;;;;;5072345;28;8867;-78
2021/11/07 12:19:38;;;;;;;;;2.00;1.00;;;;;;;;5050502;28;9004;-74
2021/11/07 12:22:12;;;;;;;;;3.75;0.75;;;;;;;;5071702;28;8866;-75
2021/11/07 12:25:01;;;;;;;;;1.50;1.00;;;;;;;;5073784;28;8889;-75
2021/11/07 12:27:32;;;;;;;;;1.00;1.00;;;;;;;;5075653;28;8866;-74
2021/11/07 12:30:03;;;;;;;;;4.00;1.00;;;;;;;;5073153;28;8976;-74
2021/11/07 12:32:37;;;;;;;;;3.50;1.00;;;;;;;;5065159;28;8822;-74
2021/11/07 12:35:11;;;;;;;;;0.50;0.50;;;;;;;;5067870;28;8867;-74
2021/11/07 12:40:52;;;;;;;;;2.75;1.00;;;;;;;;5071419;28;8806;-74
2021/11/07 12:43:23;;;;;;;;;0.00;0.00;;;;;;;;5067187;28;8865;-74
2021/11/07 12:45:56;;;;;;;;;1.00;1.00;;;;;;;;5072740;28;8868;-74
2021/11/07 12:48:44;;;;;;;;;0.50;0.50;;;;;;;;5064262;28;8857;-74
2021/11/07 12:51:14;;;;;;;;;1.00;1.00;;;;;;;;5058601;28;8861;-74
2021/11/07 12:54:03;;;;;;;;;1.25;1.25;;;;;;;;5059784;28;8858;-75
2021/11/07 12:56:39;;;;;;;;;0.00;0.00;;;;;;;;5058314;28;8904;-75
2021/11/07 12:59:09;;;;;;;;;3.50;1.00;;;;;;;;5060315;28;8873;-74
2021/11/07 13:02:03;;;;;;;;;0.75;0.75;;;;;;;;5058279;28;8833;-73
2021/11/07 13:04:32;;;;;;;;;0.25;0.25;;;;;;;;5060404;28;8960;-74
2021/11/07 13:07:02;;;;;;;;;1.25;1.25;;;;;;;;5059852;28;8861;-73
2021/11/07 13:09:37;;;;;;;;;2.00;0.75;;;;;;;;5062487;28;8892;-74
2021/11/07 13:12:13;;;;;;;;;1.00;1.00;;;;;;;;5073580;28;8861;-73
2021/11/07 13:14:54;;;;;;;;;4.75;3.50;;;;;;;;5076112;28;8855;-74
2021/11/07 13:17:41;;;;;;;;;4.00;4.00;;;;;;;;5059255;28;8985;-74
2021/11/07 13:20:28;;;;;;;;;3.00;2.00;;;;;;;;5073548;28;8842;-73
2021/11/07 13:23:11;;;;;;;;;1.75;1.75;;;;;;;;5069327;28;9041;-73
2021/11/07 13:25:51;;;;;;;;;0.50;0.50;;;;;;;;5068679;28;8886;-73
2021/11/07 13:28:31;;;;;;;;;4.50;3.25;;;;;;;;5072522;28;8952;-75
2021/11/07 13:31:06;;;;;;;;;2.25;2.00;;;;;;;;5051338;28;8815;-73
2021/11/07 13:33:35;;;;;;;;;1.00;1.00;;;;;;;;5068648;28;9000;-73
2021/11/07 13:36:02;;;;;;;;;1.00;1.00;;;;;;;;5075651;28;8857;-73
2021/11/07 13:38:34;;;;;;;;;4.00;2.50;;;;;;;;5059116;28;8850;-73
2021/11/07 13:41:01;;;;;;;;;1.25;1.25;;;;;;;;5072711;28;8859;-73
2021/11/07 13:43:30;;;;;;;;;4.75;3.50;;;;;;;;5078886;28;8863;-73
2021/11/07 13:45:58;;;;;;;;;2.00;2.00;;;;;;;;5073527;28;8843;-73
2021/11/07 13:48:30;;;;;;;;;1.00;1.00;;;;;;;;5077019;28;8873;-73
2021/11/07 13:51:00;;;;;;;;;3.00;1.00;;;;;;;;5070204;28;8851;-73
2021/11/07 13:53:30;;;;;;;;;0.00;0.00;;;;;;;;5078076;28;8889;-73
2021/11/07 13:56:00;;;;;;;;;2.00;0.75;;;;;;;;5049364;28;8950;-74
2021/11/07 13:58:31;;;;;;;;;1.00;1.00;;;;;;;;5066527;28;9936;-73
2021/11/07 14:01:01;;;;;;;;;1.00;1.00;;;;;;;;5073391;28;8926;-74
2021/11/07 14:03:28;;;;;;;;;0.50;0.25;;;;;;;;5053447;28;8873;-74
2021/11/07 14:06:03;;;;;;;;;1.50;1.00;;;;;;;;5069389;28;8874;-74
2021/11/07 14:08:41;;;;;;;;;1.25;1.25;;;;;;;;5077790;28;8856;-74
2021/11/07 14:11:09;;;;;;;;;1.50;0.25;;;;;;;;5051687;28;8878;-74
2021/11/07 14:13:41;;;;;;;;;2.00;0.75;;;;;;;;5076796;28;8839;-74
2021/11/07 14:16:09;;;;;;;;;1.75;1.75;;;;;;;;5074611;28;9607;-74
2021/11/07 14:18:44;;;;;;;;;2.50;1.00;;;;;;;;5077713;28;9604;-74
2021/11/07 14:21:14;;;;;;;;;0.00;0.00;;;;;;;;5066059;28;8893;-74
2021/11/07 14:23:45;;;;;;;;;0.50;0.50;;;;;;;;5065078;28;9810;-75
2021/11/07 14:26:17;;;;;;;;;5.25;2.25;;;;;;;;5069679;28;8871;-74
2021/11/07 14:29:01;;;;;;;;;2.50;0.25;;;;;;;;5072753;28;8890;-75
2021/11/07 14:31:32;;;;;;;;;2.25;1.25;;;;;;;;5072888;28;8840;-75
2021/11/07 14:34:04;;;;;;;;;1.75;0.75;;;;;;;;5074958;28;8855;-74
2021/11/07 14:48:06;;;;;;;;;0.00;0.00;;;;;;;;5050282;28;8899;-74
2021/11/07 14:50:42;;;;;;;;;1.00;1.00;;;;;;;;5067288;28;8883;-74
2021/11/07 14:53:13;;;;;;;;;2.25;1.00;;;;;;;;5070156;28;8972;-75
2021/11/07 14:55:54;;;;;;;;;0.25;0.25;;;;;;;;5071794;28;8921;-75
2021/11/07 15:01:15;;;;;;;;;2.00;1.00;;;;;;;;5068782;28;8809;-75
2021/11/07 15:03:52;;;;;;;;;0.00;0.00;;;;;;;;5061936;28;8867;-74
2021/11/07 15:06:31;;;;;;;;;3.00;1.00;;;;;;;;5071769;28;8908;-75
2021/11/07 15:09:03;;;;;;;;;0.00;0.00;;;;;;;;5074195;28;8944;-74
2021/11/07 15:14:25;;;;;;;;;0.33;0.33;;;;;;;;5070597;28;8976;-74
2021/11/07 15:17:01;;;;;;;;;4.25;1.00;;;;;;;;5068148;28;8960;-74
2021/11/07 15:19:33;;;;;;;;;2.00;0.75;;;;;;;;5075210;28;8957;-75
2021/11/07 15:22:05;;;;;;;;;3.75;0.25;;;;;;;;5077273;28;8832;-74
2021/11/07 15:24:38;;;;;;;;;0.00;0.00;;;;;;;;5077341;28;8953;-75
2021/11/07 15:27:06;;;;;;;;;1.00;1.00;;;;;;;;5066281;28;8878;-74
2021/11/07 15:29:45;;;;;;;;;1.00;1.00;;;;;;;;5078078;28;8993;-75
2021/11/07 15:32:14;;;;;;;;;0.25;0.25;;;;;;;;5054118;28;8816;-75
2021/11/07 15:34:45;;;;;;;;;1.00;1.00;;;;;;;;5061683;28;8836;-75
2021/11/07 15:37:25;;;;;;;;;3.75;0.25;;;;;;;;5071851;28;8856;-75
2021/11/07 15:39:55;;;;;;;;;0.00;0.00;;;;;;;;5049273;28;8923;-75
2021/11/07 15:42:26;;;;;;;;;0.50;0.25;;;;;;;;5048058;28;8868;-75
2021/11/07 15:44:57;;;;;;;;;2.00;0.75;;;;;;;;5065247;28;8876;-75
2021/11/07 15:47:27;;;;;;;;;1.00;1.00;;;;;;;;5063663;28;8864;-75
2021/11/07 15:49:58;;;;;;;;;0.00;0.00;;;;;;;;5063779;28;9505;-75
2021/11/07 15:52:33;;;;;;;;;1.00;0.25;;;;;;;;5070326;28;8848;-76
2021/11/07 15:55:07;;;;;;;;;0.00;0.00;;;;;;;;5068509;28;8977;-75
2021/11/07 15:57:42;;;;;;;;;1.00;1.00;;;;;;;;5067963;28;8906;-73
2021/11/07 16:00:23;;;;;;;;;1.67;1.00;;;;;;;;5064780;28;8873;-73
2021/11/07 16:03:05;;;;;;;;;2.00;0.00;;;;;;;;5064964;28;9116;-76
2021/11/07 16:05:48;;;;;;;;;2.00;1.00;;;;;;;;5058619;28;9036;-77
2021/11/07 16:08:20;;;;;;;;;1.00;1.00;;;;;;;;5069011;28;9183;-76
2021/11/07 16:10:57;;;;;;;;;0.67;0.67;;;;;;;;5066472;28;9188;-76
2021/11/07 16:13:32;;;;;;;;;0.33;0.33;;;;;;;;5077688;28;9100;-74
2021/11/07 16:18:42;;;;;;;;;1.00;1.00;;;;;;;;5065857;28;10103;-76
2021/11/07 16:21:16;;;;;;;;;1.00;1.00;;;;;;;;5069186;28;9663;-78
2021/11/07 16:23:44;;;;;;;;;0.00;0.00;;;;;;;;5044907;28;9363;-77
2021/11/07 16:26:15;;;;;;;;;0.00;0.00;;;;;;;;5063049;28;9586;-79
2021/11/07 16:28:44;;;;;;;;;1.50;0.75;;;;;;;;5062634;28;9455;-77